Maersk Barry — OYJE2 — position and weather

sailwx.info

Track history (hours):
 
Tides and Currents Weather Stations Pressure Air Temp Water Temp Dewpoint Dewpoint Depression Visibility Wind Speed Wind Dir Waves Ship Positions

Maersk Barry

Last reported at 2016-May-28 07:29 UTC. Time now 2016-May-28 20:42 UTC.
Position N 40°47' E 029°07'.

Length 175 m; draft 7.2 m.

Type: Ship. MMSI: 219127000.

Date/timePositionNaut miles runAvg speedWind from/ knotsBaromVisibWave heightAir tempDewpointWater temp
2016-May-28 07:29N 40°47' E 029°07'12 0.5
2016-May-27 05:33N 40°43' E 029°22'1212.1
2016-May-27 04:33N 40°42' E 029°06'  
2016-May-23 15:33N 36°25' E 014°33'13113.0
2016-May-23 05:33N 37°27' E 012°09'1312.7
2016-May-23 04:33N 37°34' E 011°55'11312.4
2016-May-22 19:23N 38°16' E 009°42'1012.3
2016-May-22 18:32N 38°19' E 009°29'1212.2
2016-May-22 17:33N 38°23' E 009°15'31012.3
2016-May-21 16:28N 40°46' E 003°18'1413.3
2016-May-21 15:26N 40°53' E 003°03'1213.3
2016-May-21 14:33N 40°59' E 002°50'1313.0
2016-May-21 13:31N 41°06' E 002°34'1212.7
2016-May-21 12:33N 41°12' E 002°20'1110.8
2016-May-21 11:33N 41°20' E 002°10'1 0.1
2016-May-20 11:29N 41°18' E 002°11'18 9.2
2016-May-20 09:33N 41°01' E 002°13'1010.3
2016-May-20 08:33N 40°59' E 001°60'1212.4
2016-May-20 07:33N 40°56' E 001°44'26 1.0
2016-May-19 06:11N 40°52' E 001°10'5 8.2
2016-May-19 05:33N 40°47' E 001°08'1211.6
2016-May-19 04:33N 40°36' E 001°06'1010.4
2016-May-19 03:33N 40°26' E 001°03'1110.8
2016-May-19 02:31N 40°15' E 001°00'1110.9
2016-May-19 01:33N 40°04' E 000°58'1110.8
2016-May-19 00:33N 39°54' E 000°55'3410.7
2016-May-18 21:24N 39°21' E 000°43'1011.3
2016-May-18 20:30N 39°12' E 000°39'1111.3
2016-May-18 19:33N 39°01' E 000°35'2611.1
2016-May-18 17:14N 38°37' E 000°24'811.3
2016-May-18 16:33N 38°31' E 000°18'2311.6
2016-May-18 14:31N 38°12' E 000°02'1212.7
2016-May-18 13:33N 38°01' W 000°07'1312.9
2016-May-18 12:34N 37°51' W 000°16'1212.4
2016-May-18 11:33N 37°40' W 000°25'1211.9
2016-May-18 10:33N 37°31' W 000°34'1211.7
2016-May-18 09:33N 37°23' W 000°45'1111.3
2016-May-18 08:33N 37°16' W 000°56'1211.6
2016-May-18 07:33N 37°08' W 001°07'  
Track history (hours):
 
Tides and Currents Weather Stations Pressure Air Temp Water Temp Dewpoint Dewpoint Depression Visibility Wind Speed Wind Dir Waves Ship Positions

Maersk Barry

Last reported at 2016-May-28 07:29 UTC. Time now 2016-May-28 20:42 UTC.
Position N 40°47' E 029°07'.

Length 175 m; draft 7.2 m.

Type: Ship. MMSI: 219127000.

Date/timePositionNaut miles runAvg speedWind from/ knotsBaromVisibWave heightAir tempDewpointWater temp
2016-May-28 07:29N 40°47' E 029°07'12 0.5
2016-May-27 05:33N 40°43' E 029°22'1212.1
2016-May-27 04:33N 40°42' E 029°06'  
2016-May-23 15:33N 36°25' E 014°33'13113.0
2016-May-23 05:33N 37°27' E 012°09'1312.7
2016-May-23 04:33N 37°34' E 011°55'11312.4
2016-May-22 19:23N 38°16' E 009°42'1012.3
2016-May-22 18:32N 38°19' E 009°29'1212.2
2016-May-22 17:33N 38°23' E 009°15'31012.3
2016-May-21 16:28N 40°46' E 003°18'1413.3
2016-May-21 15:26N 40°53' E 003°03'1213.3
2016-May-21 14:33N 40°59' E 002°50'1313.0
2016-May-21 13:31N 41°06' E 002°34'1212.7
2016-May-21 12:33N 41°12' E 002°20'1110.8
2016-May-21 11:33N 41°20' E 002°10'1 0.1
2016-May-20 11:29N 41°18' E 002°11'18 9.2
2016-May-20 09:33N 41°01' E 002°13'1010.3
2016-May-20 08:33N 40°59' E 001°60'1212.4
2016-May-20 07:33N 40°56' E 001°44'26 1.0
2016-May-19 06:11N 40°52' E 001°10'5 8.2
2016-May-19 05:33N 40°47' E 001°08'1211.6
2016-May-19 04:33N 40°36' E 001°06'1010.4
2016-May-19 03:33N 40°26' E 001°03'1110.8
2016-May-19 02:31N 40°15' E 001°00'1110.9
2016-May-19 01:33N 40°04' E 000°58'1110.8
2016-May-19 00:33N 39°54' E 000°55'3410.7
2016-May-18 21:24N 39°21' E 000°43'1011.3
2016-May-18 20:30N 39°12' E 000°39'1111.3
2016-May-18 19:33N 39°01' E 000°35'2611.1
2016-May-18 17:14N 38°37' E 000°24'811.3
2016-May-18 16:33N 38°31' E 000°18'2311.6
2016-May-18 14:31N 38°12' E 000°02'1212.7
2016-May-18 13:33N 38°01' W 000°07'1312.9
2016-May-18 12:34N 37°51' W 000°16'1212.4
2016-May-18 11:33N 37°40' W 000°25'1211.9
2016-May-18 10:33N 37°31' W 000°34'1211.7
2016-May-18 09:33N 37°23' W 000°45'1111.3
2016-May-18 08:33N 37°16' W 000°56'1211.6
2016-May-18 07:33N 37°08' W 001°07'  

Dump ship's entire track history